createdAt,value
2022-11-09T00:00:05.675Z,8.38
2022-11-09T00:01:37.916Z,9.68
2022-11-09T00:03:09.949Z,8.40
2022-11-09T00:04:41.702Z,9.68
2022-11-09T00:06:13.721Z,9.40
2022-11-09T00:07:45.460Z,9.95
2022-11-09T00:09:17.315Z,9.35
2022-11-09T00:10:49.087Z,9.50
2022-11-09T00:12:20.863Z,9.98
2022-11-09T00:13:53.115Z,10.57
2022-11-09T00:15:24.881Z,10.15
2022-11-09T00:16:57.081Z,10.48
2022-11-09T00:18:29.588Z,10.00
2022-11-09T00:20:01.379Z,10.30
2022-11-09T00:21:33.219Z,10.05
2022-11-09T00:23:05.065Z,9.75
2022-11-09T00:24:36.777Z,10.90
2022-11-09T00:26:10.773Z,10.13
2022-11-09T00:27:42.897Z,10.40
2022-11-09T00:29:14.648Z,10.48
2022-11-09T00:30:46.469Z,10.75
2022-11-09T00:32:18.295Z,10.35
2022-11-09T00:33:51.320Z,10.77
2022-11-09T00:35:23.125Z,10.55
2022-11-09T00:36:54.865Z,10.75
2022-11-09T00:38:26.598Z,11.35
2022-11-09T00:39:58.400Z,11.60
2022-11-09T00:41:32.103Z,10.65
2022-11-09T00:43:04.501Z,10.93
2022-11-09T00:44:36.240Z,11.18
2022-11-09T00:46:08.567Z,11.30
2022-11-09T00:47:40.489Z,12.02
2022-11-09T00:49:12.329Z,10.88
2022-11-09T00:50:50.080Z,10.40
2022-11-09T00:52:22.022Z,11.20
2022-11-09T00:53:55.616Z,11.60
2022-11-09T00:55:28.084Z,11.30
2022-11-09T00:57:00.100Z,11.07
2022-11-09T00:58:35.664Z,11.20
2022-11-09T01:00:08.148Z,10.82
2022-11-09T01:01:40.045Z,11.27
2022-11-09T01:03:11.849Z,10.77
2022-11-09T01:04:43.563Z,11.57
2022-11-09T01:06:24.940Z,10.85
2022-11-09T01:12:36.029Z,12.32
2022-11-09T01:14:07.796Z,12.05
2022-11-09T01:15:48.028Z,11.55
2022-11-09T01:17:19.890Z,12.43
2022-11-09T01:18:54.656Z,11.65
2022-11-09T01:20:28.902Z,12.05
2022-11-09T01:22:00.647Z,11.98
2022-11-09T01:23:34.293Z,12.65
2022-11-09T01:25:06.361Z,12.05
2022-11-09T01:26:38.496Z,11.93
2022-11-09T01:28:11.792Z,11.85
2022-11-09T01:29:43.519Z,13.20
2022-11-09T01:31:18.412Z,12.30
2022-11-09T01:32:50.145Z,11.85
2022-11-09T01:34:21.947Z,11.80
2022-11-09T01:35:53.711Z,12.77
2022-11-09T01:37:25.465Z,12.07
2022-11-09T01:38:57.276Z,12.65
2022-11-09T01:40:30.314Z,12.57
2022-11-09T01:42:02.077Z,11.88
2022-11-09T01:43:34.595Z,11.68
2022-11-09T01:45:18.299Z,13.60
2022-11-09T01:46:58.400Z,12.73
2022-11-09T01:48:44.160Z,12.30
2022-11-09T01:50:20.912Z,12.50
2022-11-09T01:51:59.368Z,11.50
2022-11-09T01:53:36.234Z,12.30
2022-11-09T01:55:14.610Z,12.45
2022-11-09T01:56:51.337Z,12.88
2022-11-09T01:58:37.789Z,13.02
2022-11-09T02:00:13.119Z,12.77
2022-11-09T02:01:45.939Z,12.32
2022-11-09T02:03:25.450Z,12.95
2022-11-09T02:05:03.481Z,12.77
2022-11-09T02:06:35.911Z,12.68
2022-11-09T02:08:09.361Z,12.50
2022-11-09T02:09:51.682Z,13.43
2022-11-09T02:11:24.761Z,13.00
2022-11-09T02:12:58.961Z,13.57
2022-11-09T02:14:34.042Z,13.23
2022-11-09T02:16:06.878Z,12.00
2022-11-09T02:17:39.717Z,12.75
2022-11-09T02:19:11.689Z,12.38
2022-11-09T02:20:51.579Z,13.35
2022-11-09T02:22:23.345Z,12.52
2022-11-09T02:23:55.833Z,13.80
2022-11-09T02:25:28.878Z,12.75
2022-11-09T02:27:01.013Z,13.30
2022-11-09T02:28:36.448Z,12.60
2022-11-09T02:30:09.117Z,12.13
2022-11-09T02:31:48.568Z,12.00
2022-11-09T02:33:21.676Z,12.70
2022-11-09T02:34:53.912Z,14.27
2022-11-09T02:36:25.918Z,13.23
2022-11-09T02:37:58.379Z,12.85
2022-11-09T02:39:30.362Z,13.20
2022-11-09T02:41:02.567Z,12.50
2022-11-09T02:42:34.700Z,13.57
2022-11-09T02:44:06.668Z,13.43
2022-11-09T02:45:39.529Z,12.68
2022-11-09T02:47:11.281Z,13.63
2022-11-09T02:48:43.037Z,13.65
2022-11-09T02:50:14.796Z,13.82
2022-11-09T02:51:47.514Z,13.85
2022-11-09T02:53:19.497Z,13.98
2022-11-09T02:54:52.094Z,13.63
2022-11-09T02:56:24.251Z,13.23
2022-11-09T02:57:56.064Z,13.55
2022-11-09T02:59:28.363Z,12.90
2022-11-09T03:01:00.237Z,13.30
2022-11-09T03:02:32.720Z,13.95
2022-11-09T03:04:04.844Z,13.90
2022-11-09T03:05:37.989Z,14.73
2022-11-09T03:07:10.242Z,13.05
2022-11-09T03:08:42.560Z,12.65
2022-11-09T03:10:14.433Z,13.15
2022-11-09T03:11:46.659Z,13.15
2022-11-09T03:13:20.577Z,13.40
2022-11-09T03:14:52.941Z,12.82
2022-11-09T03:16:25.333Z,13.80
2022-11-09T03:17:57.093Z,13.57
2022-11-09T03:19:29.668Z,13.85
2022-11-09T03:21:03.268Z,13.23
2022-11-09T03:22:35.080Z,14.15
2022-11-09T03:24:07.274Z,13.52
2022-11-09T03:25:40.166Z,14.02
2022-11-09T03:27:12.615Z,13.68
2022-11-09T03:28:44.425Z,13.88
2022-11-09T03:30:19.117Z,13.80
2022-11-09T03:31:51.311Z,14.63
2022-11-09T03:33:23.099Z,13.73
2022-11-09T03:34:54.890Z,14.95
2022-11-09T03:36:26.648Z,13.15
2022-11-09T03:37:58.615Z,13.98
2022-11-09T03:39:30.697Z,14.95
2022-11-09T03:41:03.035Z,13.68
2022-11-09T03:42:35.166Z,13.85
2022-11-09T03:44:06.966Z,14.10
2022-11-09T03:45:38.852Z,14.48
2022-11-09T03:47:10.584Z,13.65
2022-11-09T03:48:42.333Z,14.35
2022-11-09T03:50:16.020Z,14.88
2022-11-09T03:51:47.845Z,13.48
2022-11-09T03:53:19.910Z,12.63
2022-11-09T03:54:51.801Z,13.68
2022-11-09T03:56:23.555Z,13.45
2022-11-09T03:57:55.486Z,13.88
2022-11-09T03:59:27.218Z,12.65
2022-11-09T04:00:58.959Z,13.02
2022-11-09T04:02:30.699Z,14.35
2022-11-09T04:04:02.486Z,13.40
2022-11-09T04:05:34.339Z,13.75
2022-11-09T04:07:06.157Z,13.55
2022-11-09T04:08:37.933Z,12.90
2022-11-09T04:10:09.858Z,14.20
2022-11-09T04:11:41.632Z,12.77
2022-11-09T04:13:13.396Z,13.75
2022-11-09T04:14:45.256Z,13.98
2022-11-09T04:16:17.106Z,13.50
2022-11-09T04:17:56.353Z,13.48
2022-11-09T04:19:28.085Z,12.98
2022-11-09T04:20:59.845Z,12.80
2022-11-09T04:22:31.615Z,13.82
2022-11-09T04:24:03.435Z,13.27
2022-11-09T04:25:37.038Z,12.70
2022-11-09T04:27:08.953Z,13.60
2022-11-09T04:28:40.694Z,13.50
2022-11-09T04:30:12.777Z,13.48
2022-11-09T04:31:44.531Z,12.82
2022-11-09T04:33:16.332Z,12.88
2022-11-09T04:34:48.164Z,13.65
2022-11-09T04:36:19.971Z,12.15
2022-11-09T04:38:06.222Z,12.55
2022-11-09T04:39:37.988Z,12.35
2022-11-09T04:41:09.888Z,12.20
2022-11-09T04:42:41.622Z,12.50
2022-11-09T04:44:13.417Z,13.60
2022-11-09T04:45:45.888Z,13.05
2022-11-09T04:47:17.686Z,12.45
2022-11-09T04:48:49.521Z,13.07
2022-11-09T04:50:21.257Z,12.15
2022-11-09T04:51:56.561Z,12.35
2022-11-09T04:53:28.763Z,12.68
2022-11-09T04:55:00.494Z,12.27
2022-11-09T04:56:32.424Z,12.35
2022-11-09T04:58:04.527Z,12.40
2022-11-09T04:59:36.256Z,12.93
2022-11-09T05:01:12.494Z,13.07
2022-11-09T05:02:44.289Z,12.15
2022-11-09T05:04:16.131Z,12.45
2022-11-09T05:05:48.612Z,11.98
2022-11-09T05:07:20.589Z,12.40
2022-11-09T05:08:56.153Z,12.50
2022-11-09T05:10:28.108Z,12.32
2022-11-09T05:11:59.856Z,11.80
2022-11-09T05:13:31.589Z,12.30
2022-11-09T05:15:03.490Z,12.35
2022-11-09T05:16:35.263Z,11.88
2022-11-09T05:18:08.609Z,12.32
2022-11-09T05:19:40.456Z,12.13
2022-11-09T05:21:12.883Z,12.60
2022-11-09T05:23:03.404Z,12.07
2022-11-09T05:24:35.116Z,12.15
2022-11-09T05:26:06.840Z,11.35
2022-11-09T05:27:39.004Z,12.48
2022-11-09T05:29:12.557Z,11.68
2022-11-09T05:30:44.356Z,12.77
2022-11-09T05:32:16.145Z,12.02
2022-11-09T05:33:51.888Z,11.60
2022-11-09T05:35:23.681Z,12.73
2022-11-09T05:36:58.213Z,12.63
2022-11-09T05:38:34.045Z,12.00
2022-11-09T05:40:07.525Z,11.43
2022-11-09T05:41:39.297Z,12.32
2022-11-09T05:43:11.007Z,11.88
2022-11-09T05:44:42.752Z,12.23
2022-11-09T05:46:18.448Z,12.25
2022-11-09T05:47:50.193Z,11.73
2022-11-09T05:49:21.934Z,12.32
2022-11-09T05:50:53.675Z,11.88
2022-11-09T05:52:32.232Z,12.85
2022-11-09T05:54:04.178Z,12.48
2022-11-09T05:55:36.063Z,11.55
2022-11-09T05:57:07.900Z,11.93
2022-11-09T05:58:41.434Z,12.05
2022-11-09T06:00:13.997Z,11.20
2022-11-09T06:01:45.772Z,12.10
2022-11-09T06:03:17.695Z,12.38
2022-11-09T06:04:49.578Z,12.15
2022-11-09T06:06:21.329Z,11.30
2022-11-09T06:07:53.073Z,11.35
2022-11-09T06:09:24.812Z,11.32
2022-11-09T06:11:01.456Z,12.02
2022-11-09T06:12:33.216Z,11.95
2022-11-09T06:14:04.953Z,11.90
2022-11-09T06:15:36.798Z,12.00
2022-11-09T06:17:08.544Z,11.63
2022-11-09T06:18:40.276Z,11.15
2022-11-09T06:20:11.991Z,12.85
2022-11-09T06:21:43.756Z,11.75
2022-11-09T06:23:15.490Z,12.27
2022-11-09T06:24:47.204Z,12.13
2022-11-09T06:26:19.041Z,11.80
2022-11-09T06:27:51.161Z,11.57
2022-11-09T06:29:22.914Z,13.63
2022-11-09T06:30:58.989Z,12.43
2022-11-09T06:32:30.734Z,12.45
2022-11-09T06:34:03.445Z,11.30
2022-11-09T06:35:35.549Z,11.18
2022-11-09T06:37:07.336Z,11.80
2022-11-09T06:38:39.589Z,11.65
2022-11-09T06:40:12.727Z,11.48
2022-11-09T06:41:47.402Z,11.13
2022-11-09T06:43:20.124Z,11.93
2022-11-09T06:44:52.062Z,12.20
2022-11-09T06:46:23.889Z,11.38
2022-11-09T06:47:59.642Z,11.50
2022-11-09T06:49:31.443Z,11.55
2022-11-09T06:51:04.788Z,12.80
2022-11-09T06:52:36.554Z,11.35
2022-11-09T06:54:08.299Z,11.18
2022-11-09T06:55:43.380Z,12.10
2022-11-09T06:57:19.057Z,11.30
2022-11-09T06:58:50.772Z,11.57
2022-11-09T07:00:23.377Z,12.48
2022-11-09T07:02:00.121Z,11.15
2022-11-09T07:03:33.120Z,11.68
2022-11-09T07:05:05.230Z,11.48
2022-11-09T07:06:40.635Z,11.25
2022-11-09T07:08:13.270Z,11.10
2022-11-09T07:09:45.006Z,10.27
2022-11-09T07:11:17.001Z,11.63
2022-11-09T07:12:48.780Z,12.60
2022-11-09T07:14:20.509Z,11.07
2022-11-09T07:15:55.062Z,11.55
2022-11-09T07:17:26.877Z,10.52
2022-11-09T07:18:58.649Z,10.90
2022-11-09T07:20:31.240Z,11.25
2022-11-09T07:22:03.179Z,11.32
2022-11-09T07:23:34.909Z,11.15
2022-11-09T07:25:08.248Z,11.52
2022-11-09T07:26:40.321Z,10.38
2022-11-09T07:28:12.577Z,10.98
2022-11-09T07:29:44.394Z,10.13
2022-11-09T07:31:16.238Z,10.70
2022-11-09T07:34:39.744Z,11.02
2022-11-09T07:36:12.936Z,10.25
2022-11-09T07:37:46.310Z,10.13
2022-11-09T07:39:18.045Z,11.45
2022-11-09T07:40:49.776Z,10.85
2022-11-09T07:42:21.595Z,10.02
2022-11-09T07:43:53.782Z,9.60
2022-11-09T07:45:26.141Z,9.70
2022-11-09T07:46:57.998Z,10.07
2022-11-09T07:48:29.759Z,10.20
2022-11-09T07:50:01.632Z,9.75
2022-11-09T07:51:35.070Z,10.10
2022-11-09T07:53:07.726Z,10.35
2022-11-09T07:54:39.902Z,10.52
2022-11-09T07:56:11.820Z,10.35
2022-11-09T07:57:44.489Z,10.23
2022-11-09T07:59:16.221Z,10.25
2022-11-09T08:00:48.029Z,9.80
2022-11-09T08:02:19.927Z,10.00
2022-11-09T08:03:53.501Z,8.98
2022-11-09T08:05:25.745Z,9.63
2022-11-09T08:06:57.546Z,10.10
2022-11-09T08:08:29.320Z,10.32
2022-11-09T08:10:01.099Z,9.48
2022-11-09T08:11:32.904Z,9.60
2022-11-09T08:13:08.675Z,10.00
2022-11-09T08:14:40.485Z,10.65
2022-11-09T08:16:12.689Z,9.45
2022-11-09T08:17:44.465Z,9.68
2022-11-09T08:19:16.397Z,9.25
2022-11-09T08:20:48.748Z,9.68
2022-11-09T08:22:20.483Z,10.40
2022-11-09T08:23:52.398Z,10.23
2022-11-09T08:25:24.240Z,9.52
2022-11-09T08:26:55.972Z,10.40
2022-11-09T08:28:27.743Z,10.27
2022-11-09T08:29:59.483Z,9.73
2022-11-09T08:31:31.202Z,10.00
2022-11-09T08:33:03.672Z,11.48
2022-11-09T08:34:35.467Z,10.90
2022-11-09T08:36:12.647Z,10.65
2022-11-09T08:37:49.596Z,10.43
2022-11-09T08:39:23.257Z,11.25
2022-11-09T08:40:58.693Z,10.98
2022-11-09T08:42:30.565Z,11.30
2022-11-09T08:44:02.604Z,11.00
2022-11-09T08:45:36.213Z,11.20
2022-11-09T08:47:08.031Z,10.90
2022-11-09T08:48:39.805Z,11.15
2022-11-09T08:50:13.503Z,10.82
2022-11-09T08:51:45.285Z,11.00
2022-11-09T08:53:17.018Z,12.30
2022-11-09T08:54:48.792Z,10.45
2022-11-09T08:56:20.542Z,11.63
2022-11-09T08:57:56.989Z,11.43
2022-11-09T08:59:28.794Z,10.65
2022-11-09T09:01:00.525Z,10.77
2022-11-09T09:02:32.324Z,11.90
2022-11-09T09:04:04.092Z,10.70
2022-11-09T09:05:36.415Z,11.63
2022-11-09T09:07:08.855Z,11.32
2022-11-09T09:08:40.669Z,11.23
2022-11-09T09:10:12.684Z,11.15
2022-11-09T09:11:44.433Z,10.85
2022-11-09T09:13:16.213Z,9.75
2022-11-09T09:14:48.039Z,9.18
2022-11-09T09:16:19.873Z,10.45
2022-11-09T09:17:51.595Z,9.85
2022-11-09T09:19:23.419Z,11.15
2022-11-09T09:20:55.160Z,11.07
2022-11-09T09:22:26.868Z,11.18
2022-11-09T09:23:58.637Z,10.40
2022-11-09T09:25:30.560Z,11.98
2022-11-09T09:27:02.976Z,11.15
2022-11-09T09:28:34.988Z,10.63
2022-11-09T09:30:07.527Z,11.30
2022-11-09T09:31:40.297Z,10.52
2022-11-09T09:33:12.877Z,10.20
2022-11-09T09:34:44.639Z,10.68
2022-11-09T09:36:22.419Z,9.95
2022-11-09T09:37:54.875Z,10.13
2022-11-09T09:39:26.769Z,10.25
2022-11-09T09:41:04.259Z,9.75
2022-11-09T09:42:42.385Z,10.10
2022-11-09T09:44:17.474Z,9.50
2022-11-09T09:45:53.205Z,10.20
2022-11-09T09:47:40.381Z,10.10
2022-11-09T09:49:25.061Z,10.80
2022-11-09T09:51:05.318Z,10.20
2022-11-09T09:52:50.654Z,11.20
2022-11-09T09:54:36.943Z,10.85
2022-11-09T09:56:24.082Z,10.50
2022-11-09T09:58:11.754Z,10.93
2022-11-09T09:59:47.514Z,10.82
2022-11-09T10:01:22.043Z,11.60
2022-11-09T10:02:55.137Z,11.02
2022-11-09T10:04:29.971Z,10.43
2022-11-09T10:06:05.634Z,10.38
2022-11-09T10:07:56.072Z,10.85
2022-11-09T10:09:59.917Z,9.85
2022-11-09T10:11:43.777Z,10.88
2022-11-09T10:13:22.476Z,10.63
2022-11-09T10:15:18.536Z,9.77
2022-11-09T10:17:27.816Z,10.63
2022-11-09T10:19:25.525Z,9.85
2022-11-09T10:21:35.779Z,9.07
2022-11-09T10:23:10.324Z,9.10
2022-11-09T10:26:55.786Z,10.00
2022-11-09T10:28:42.367Z,9.68
2022-11-09T10:30:23.163Z,9.65
2022-11-09T10:32:00.082Z,9.48
2022-11-09T10:33:32.053Z,9.55
2022-11-09T10:35:21.625Z,9.93
2022-11-09T10:36:58.897Z,9.57
2022-11-09T10:38:40.388Z,9.45
2022-11-09T10:40:41.408Z,8.68
2022-11-09T10:42:31.690Z,8.82
2022-11-09T10:44:22.061Z,9.80
2022-11-09T10:46:12.415Z,9.18
2022-11-09T10:48:04.434Z,8.13
2022-11-09T10:50:21.316Z,8.75
2022-11-09T10:52:43.067Z,8.70
2022-11-09T10:54:38.288Z,8.52
2022-11-09T10:56:32.932Z,7.75
2022-11-09T10:58:36.444Z,8.77
2022-11-09T11:00:27.871Z,8.15
2022-11-09T11:02:24.510Z,7.88
2022-11-09T11:04:24.484Z,8.13
2022-11-09T11:06:32.543Z,7.15
2022-11-09T11:08:26.971Z,7.88
2022-11-09T11:10:17.205Z,8.00
2022-11-09T11:12:20.532Z,7.88
2022-11-09T11:14:46.580Z,7.88
2022-11-09T11:16:38.493Z,7.68
2022-11-09T11:18:29.610Z,8.25
2022-11-09T11:20:36.238Z,7.85
2022-11-09T11:22:27.599Z,7.45
2022-11-09T11:24:21.173Z,8.32
2022-11-09T11:26:23.824Z,8.07
2022-11-09T11:28:40.049Z,7.95
2022-11-09T11:30:39.681Z,8.68
2022-11-09T11:32:30.360Z,9.23
2022-11-09T11:34:45.585Z,8.18
2022-11-09T11:36:39.121Z,7.95
2022-11-09T11:38:35.953Z,8.18
2022-11-09T11:41:00.023Z,9.13
2022-11-09T11:43:24.575Z,8.25
2022-11-09T11:45:39.428Z,8.60
2022-11-09T11:48:01.079Z,8.48
2022-11-09T11:50:25.486Z,8.55
2022-11-09T11:52:59.507Z,7.57
2022-11-09T11:55:20.648Z,7.80
2022-11-09T11:57:23.263Z,8.20
2022-11-09T11:59:34.289Z,8.32
2022-11-09T12:01:37.017Z,7.10
2022-11-09T12:04:00.780Z,7.70
2022-11-09T12:06:02.994Z,7.72
2022-11-09T12:08:16.895Z,7.90
2022-11-09T12:10:30.981Z,7.68
2022-11-09T12:13:06.362Z,8.63
2022-11-09T12:15:12.244Z,7.90
2022-11-09T12:17:11.006Z,7.70
2022-11-09T12:19:35.336Z,7.30
2022-11-09T12:21:38.009Z,7.85
2022-11-09T12:23:37.340Z,7.97
2022-11-09T12:25:44.952Z,7.88
2022-11-09T12:27:47.327Z,7.70
2022-11-09T12:29:50.534Z,7.55
2022-11-09T12:31:51.249Z,7.45
2022-11-09T12:33:50.418Z,7.43
2022-11-09T12:35:46.819Z,7.65
2022-11-09T12:37:50.158Z,7.53
2022-11-09T12:39:51.265Z,7.45
2022-11-09T12:41:43.249Z,6.68
2022-11-09T12:43:58.107Z,8.05
2022-11-09T12:45:50.039Z,6.70
2022-11-09T12:47:43.441Z,7.90
2022-11-09T12:49:39.289Z,8.02
2022-11-09T12:51:30.012Z,6.70
2022-11-09T12:53:24.136Z,7.43
2022-11-09T12:55:17.255Z,7.18
2022-11-09T12:57:11.432Z,7.50
2022-11-09T12:59:21.632Z,8.13
2022-11-09T13:01:33.251Z,7.75
2022-11-09T13:05:37.807Z,7.30
2022-11-09T13:07:43.998Z,7.57
2022-11-09T13:09:44.437Z,7.57
2022-11-09T13:11:48.365Z,8.07
2022-11-09T13:13:38.794Z,8.68
2022-11-09T13:15:34.401Z,7.72
2022-11-09T13:17:24.769Z,7.32
2022-11-09T13:19:33.856Z,8.68
2022-11-09T13:21:23.821Z,8.45
2022-11-09T13:23:59.240Z,8.35
2022-11-09T13:25:53.082Z,8.48
2022-11-09T13:27:48.201Z,8.95
2022-11-09T13:29:41.525Z,8.40
2022-11-09T13:31:59.743Z,8.90
2022-11-09T13:34:29.009Z,9.40
2022-11-09T13:36:20.712Z,9.40
2022-11-09T13:38:25.256Z,9.82
2022-11-09T13:40:30.920Z,9.82
2022-11-09T13:42:28.641Z,9.15
2022-11-09T13:44:32.733Z,10.32
2022-11-09T13:46:33.052Z,9.43
2022-11-09T13:48:41.221Z,10.27
2022-11-09T13:50:33.397Z,9.18
2022-11-09T13:52:48.079Z,10.55
2022-11-09T13:54:44.242Z,9.27
2022-11-09T13:56:40.072Z,10.18
2022-11-09T13:58:36.799Z,10.60
2022-11-09T14:00:27.294Z,9.48
2022-11-09T14:02:23.334Z,9.45
2022-11-09T14:04:36.173Z,9.65
2022-11-09T14:06:28.809Z,11.00
2022-11-09T14:08:40.016Z,10.57
2022-11-09T14:13:07.663Z,10.57
2022-11-09T14:15:27.292Z,10.05
2022-11-09T14:17:36.831Z,11.40
2022-11-09T14:19:47.997Z,11.02
2022-11-09T14:21:48.282Z,11.47
2022-11-09T14:23:39.235Z,11.57
2022-11-09T14:25:35.209Z,11.18
2022-11-09T14:27:25.792Z,11.65
2022-11-09T14:29:24.664Z,10.63
2022-11-09T14:31:26.811Z,11.30
2022-11-09T14:33:35.503Z,11.40
2022-11-09T14:35:26.014Z,10.82
2022-11-09T14:37:17.389Z,10.75
2022-11-09T14:41:25.808Z,10.95
2022-11-09T14:43:34.501Z,10.95
2022-11-09T14:45:24.848Z,11.93
2022-11-09T14:47:19.756Z,12.20
2022-11-09T14:49:11.724Z,11.80
2022-11-09T14:51:05.151Z,12.55
2022-11-09T14:52:56.277Z,11.68
2022-11-09T14:54:49.298Z,12.80
2022-11-09T14:56:42.336Z,12.50
2022-11-09T14:58:36.481Z,12.52
2022-11-09T15:00:34.477Z,13.18
2022-11-09T15:02:25.522Z,12.15
2022-11-09T15:04:21.119Z,12.95
2022-11-09T15:06:14.164Z,12.70
2022-11-09T15:08:05.816Z,12.18
2022-11-09T15:09:59.153Z,12.82
2022-11-09T15:11:51.149Z,12.60
2022-11-09T15:13:41.914Z,13.55
2022-11-09T15:15:34.821Z,12.25
2022-11-09T15:17:34.758Z,12.65
2022-11-09T15:19:39.485Z,13.13
2022-11-09T15:21:36.044Z,14.02
2022-11-09T15:23:41.309Z,12.73
2022-11-09T15:25:41.131Z,13.02
2022-11-09T15:27:34.953Z,13.00
2022-11-09T15:29:36.853Z,13.00
2022-11-09T15:31:28.480Z,14.52
2022-11-09T15:33:22.218Z,15.05
2022-11-09T15:35:18.470Z,13.45
2022-11-09T15:37:22.608Z,12.77
2022-11-09T15:39:16.901Z,13.85
2022-11-09T15:41:14.885Z,14.77
2022-11-09T15:43:05.260Z,14.88
2022-11-09T15:44:58.359Z,14.13
2022-11-09T15:46:53.215Z,14.07
2022-11-09T15:48:46.349Z,13.88
2022-11-09T15:50:37.149Z,14.52
2022-11-09T15:52:28.343Z,14.23
2022-11-09T15:54:18.798Z,14.50
2022-11-09T15:56:21.153Z,13.60
2022-11-09T15:58:14.516Z,14.07
2022-11-09T16:00:09.158Z,13.63
2022-11-09T16:02:01.734Z,13.77
2022-11-09T16:03:52.093Z,14.68
2022-11-09T16:05:42.416Z,14.50
2022-11-09T16:07:32.963Z,15.25
2022-11-09T16:09:23.319Z,13.80
2022-11-09T16:11:13.284Z,14.88
2022-11-09T16:13:05.426Z,15.20
2022-11-09T16:14:55.432Z,14.40
2022-11-09T16:16:45.429Z,15.00
2022-11-09T16:18:35.768Z,14.15
2022-11-09T16:20:25.844Z,14.40
2022-11-09T16:22:16.004Z,13.75
2022-11-09T16:24:07.040Z,13.93
2022-11-09T16:25:57.372Z,14.40
2022-11-09T16:27:50.520Z,13.38
2022-11-09T16:29:41.830Z,13.90
2022-11-09T16:33:42.404Z,14.88
2022-11-09T16:35:34.653Z,15.13
2022-11-09T16:37:27.027Z,15.27
2022-11-09T16:39:17.459Z,13.95
2022-11-09T16:41:09.255Z,15.60
2022-11-09T16:43:00.533Z,15.00
2022-11-09T16:46:45.196Z,15.80
2022-11-09T16:48:36.003Z,15.95
2022-11-09T16:50:26.040Z,15.18
2022-11-09T16:52:16.463Z,15.45
2022-11-09T16:54:06.686Z,16.08
2022-11-09T16:55:57.213Z,16.23
2022-11-09T16:57:47.609Z,15.88
2022-11-09T16:59:38.584Z,16.02
2022-11-09T17:01:29.050Z,15.27
2022-11-09T17:03:19.543Z,15.85
2022-11-09T17:05:10.049Z,15.35
2022-11-09T17:07:00.604Z,15.93
2022-11-09T17:08:55.323Z,16.75
2022-11-09T17:10:46.985Z,15.77
2022-11-09T17:14:31.157Z,15.82
2022-11-09T17:16:21.194Z,14.65
2022-11-09T17:18:11.548Z,15.88
2022-11-09T17:20:05.145Z,16.15
2022-11-09T17:21:55.301Z,15.52
2022-11-09T17:23:46.283Z,14.57
2022-11-09T17:25:37.023Z,15.65
2022-11-09T17:27:27.321Z,15.23
2022-11-09T17:29:17.514Z,16.13
2022-11-09T17:31:12.855Z,15.10
2022-11-09T17:33:02.900Z,14.27
2022-11-09T17:34:53.727Z,15.43
2022-11-09T17:37:04.122Z,13.95
2022-11-09T17:38:54.641Z,15.60
2022-11-09T17:40:44.994Z,15.18
2022-11-09T17:42:35.548Z,15.27
2022-11-09T17:44:25.516Z,14.07
2022-11-09T17:46:18.864Z,14.43
2022-11-09T17:48:08.858Z,14.18
2022-11-09T17:49:58.972Z,15.32
2022-11-09T17:51:49.094Z,14.55
2022-11-09T17:53:39.864Z,14.25
2022-11-09T17:55:30.193Z,14.95
2022-11-09T17:57:20.665Z,14.25
2022-11-09T17:59:11.549Z,13.60
2022-11-09T18:01:13.869Z,14.65
2022-11-09T18:03:04.299Z,14.50
2022-11-09T18:04:54.381Z,14.93
2022-11-09T18:06:44.578Z,13.23
2022-11-09T18:08:34.978Z,12.65
2022-11-09T18:10:25.182Z,13.02
2022-11-09T18:12:16.564Z,15.40
2022-11-09T18:14:07.117Z,13.75
2022-11-09T18:15:57.168Z,13.73
2022-11-09T18:17:47.192Z,12.43
2022-11-09T18:19:37.312Z,12.27
2022-11-09T18:21:28.750Z,12.90
2022-11-09T18:23:18.885Z,13.18
2022-11-09T18:25:09.353Z,12.85
2022-11-09T18:27:00.208Z,11.93
2022-11-09T18:28:50.797Z,12.52
2022-11-09T18:30:41.848Z,12.00
2022-11-09T18:32:32.581Z,11.13
2022-11-09T18:34:22.838Z,11.23
2022-11-09T18:36:15.767Z,11.40
2022-11-09T18:38:10.054Z,11.25
2022-11-09T18:40:05.343Z,12.23
2022-11-09T18:41:57.094Z,11.30
2022-11-09T18:43:48.409Z,10.93
2022-11-09T18:45:38.474Z,10.52
2022-11-09T18:47:28.876Z,10.85
2022-11-09T18:49:20.153Z,10.20
2022-11-09T18:51:11.258Z,10.98
2022-11-09T18:53:01.553Z,10.75
2022-11-09T18:54:51.557Z,10.35
2022-11-09T18:56:42.053Z,10.75
2022-11-09T18:58:32.947Z,10.48
2022-11-09T19:00:23.226Z,10.07
2022-11-09T19:02:14.075Z,9.85
2022-11-09T19:04:04.976Z,10.07
2022-11-09T19:05:55.543Z,9.82
2022-11-09T19:07:45.581Z,9.35
2022-11-09T19:09:35.832Z,8.80
2022-11-09T19:11:26.529Z,8.80
2022-11-09T19:13:16.618Z,8.82
2022-11-09T19:15:07.581Z,9.35
2022-11-09T19:16:57.953Z,9.13
2022-11-09T19:18:48.619Z,8.80
2022-11-09T19:20:39.028Z,9.27
2022-11-09T19:22:29.646Z,8.13
2022-11-09T19:24:22.525Z,8.75
2022-11-09T19:26:13.123Z,7.78
2022-11-09T19:28:03.290Z,8.35
2022-11-09T19:29:53.473Z,7.78
2022-11-09T19:31:45.145Z,7.97
2022-11-09T19:33:35.439Z,7.97
2022-11-09T19:35:29.637Z,8.40
2022-11-09T19:37:23.001Z,9.95
2022-11-09T19:39:14.727Z,8.10
2022-11-09T19:41:04.996Z,7.65
2022-11-09T19:42:55.416Z,7.28
2022-11-09T19:44:45.651Z,6.35
2022-11-09T19:46:36.411Z,6.25
2022-11-09T19:48:26.980Z,6.80
2022-11-09T19:50:17.181Z,7.57
2022-11-09T19:52:07.373Z,6.43
2022-11-09T19:53:59.882Z,6.60
2022-11-09T19:55:50.576Z,7.28
2022-11-09T19:57:40.927Z,6.82
2022-11-09T19:59:31.412Z,7.72
2022-11-09T20:01:22.959Z,7.72
2022-11-09T20:03:13.559Z,7.13
2022-11-09T20:05:04.648Z,7.63
2022-11-09T20:06:55.066Z,7.35
2022-11-09T20:08:45.652Z,7.85
2022-11-09T20:10:37.830Z,7.32
2022-11-09T20:12:47.044Z,7.65
2022-11-09T20:14:37.325Z,8.10
2022-11-09T20:16:27.610Z,7.07
2022-11-09T20:18:19.140Z,6.30
2022-11-09T20:22:01.464Z,6.18
2022-11-09T20:23:51.815Z,5.25
2022-11-09T20:25:42.929Z,6.35
2022-11-09T20:27:33.511Z,5.97
2022-11-09T20:29:23.836Z,5.70
2022-11-09T20:31:17.045Z,5.93
2022-11-09T20:33:09.700Z,5.82
2022-11-09T20:35:00.427Z,5.90
2022-11-09T20:36:50.472Z,6.07
2022-11-09T20:38:41.093Z,5.60
2022-11-09T20:40:34.480Z,6.10
2022-11-09T20:42:24.944Z,5.78
2022-11-09T20:44:15.811Z,5.20
2022-11-09T20:48:10.619Z,4.82
2022-11-09T20:50:09.566Z,5.43
2022-11-09T20:52:00.053Z,5.03
2022-11-09T20:53:50.925Z,5.00
2022-11-09T20:55:42.390Z,5.15
2022-11-09T20:57:32.713Z,5.40
2022-11-09T20:59:23.162Z,4.88
2022-11-09T21:01:21.408Z,6.03
2022-11-09T21:03:12.813Z,4.90
2022-11-09T21:05:03.600Z,4.60
2022-11-09T21:06:53.811Z,5.32
2022-11-09T21:08:50.156Z,5.40
2022-11-09T21:10:41.578Z,4.85
2022-11-09T21:12:32.937Z,4.88
2022-11-09T21:14:23.837Z,5.13
2022-11-09T21:16:16.459Z,5.05
2022-11-09T21:18:07.312Z,5.28
2022-11-09T21:19:57.701Z,4.97
2022-11-09T21:21:47.886Z,4.82
2022-11-09T21:23:57.817Z,5.00
2022-11-09T21:26:06.560Z,4.68
2022-11-09T21:28:15.406Z,4.80
2022-11-09T21:30:07.308Z,4.82
2022-11-09T21:31:58.658Z,4.43
2022-11-09T21:33:53.245Z,4.43
2022-11-09T21:35:43.212Z,4.07
2022-11-09T21:37:33.480Z,4.55
2022-11-09T21:39:24.294Z,4.68
2022-11-09T21:41:32.819Z,3.85
2022-11-09T21:43:23.542Z,3.92
2022-11-09T21:45:14.080Z,3.95
2022-11-09T21:47:08.443Z,3.80
2022-11-09T21:48:58.493Z,3.65
2022-11-09T21:50:48.609Z,3.65
2022-11-09T21:52:39.032Z,3.90
2022-11-09T21:54:29.960Z,3.47
2022-11-09T21:56:20.009Z,4.00
2022-11-09T21:58:10.326Z,3.67
2022-11-09T22:00:00.425Z,4.00
2022-11-09T22:01:50.643Z,3.90
2022-11-09T22:03:41.957Z,3.70
2022-11-09T22:05:32.198Z,3.83
2022-11-09T22:07:22.582Z,4.05
2022-11-09T22:09:17.777Z,3.42
2022-11-09T22:11:16.745Z,3.47
2022-11-09T22:13:29.615Z,3.95
2022-11-09T22:15:37.965Z,3.90
2022-11-09T22:17:28.401Z,4.15
2022-11-09T22:19:37.704Z,4.85
2022-11-09T22:21:28.007Z,4.20
2022-11-09T22:23:18.277Z,3.88
2022-11-09T22:25:09.040Z,4.20
2022-11-09T22:26:59.340Z,4.90
2022-11-09T22:28:49.485Z,4.60
2022-11-09T22:30:39.609Z,4.45
2022-11-09T22:32:29.951Z,4.15
2022-11-09T22:34:20.260Z,4.30
2022-11-09T22:36:12.980Z,3.42
2022-11-09T22:38:03.347Z,3.53
2022-11-09T22:39:53.763Z,3.45
2022-11-09T22:41:44.117Z,3.33
2022-11-09T22:43:36.189Z,3.28
2022-11-09T22:45:26.194Z,3.00
2022-11-09T22:47:16.532Z,3.35
2022-11-09T22:49:06.869Z,2.80
2022-11-09T22:50:57.140Z,2.45
2022-11-09T22:52:49.772Z,2.03
2022-11-09T22:54:42.543Z,2.28
2022-11-09T22:56:32.932Z,2.05
2022-11-09T22:58:24.436Z,1.77
2022-11-09T23:00:16.377Z,1.73
2022-11-09T23:02:06.520Z,1.70
2022-11-09T23:03:56.642Z,1.67